Lester, Pennsylvania
Current Conditions -  °F | °C
As of 9:36 AM on Tuesday 27 Jan 2015 (Local Time) from KPHL Reporting Station
Light Snow Light Snow  
Wind Chill: -9°   Ceiling: 2800
Heat Index: -3°   Visibility: 5mi
Dew Point: -6°   Wind: 13mph
Humidity: 78%   Direction: 330°NNW
Pressure: 29.77"   Gusts: NA
Location:  39.867°N, 75.284°W
Report Text: KPHL 271436Z 33011KT 5SM -SN FEW015 BKN028 OVC040 M03/M06 A2977 RMK AO2 P0001 T10281061
Loading
Personal Weather Stations






























Interactive Weather Map New forecast layout! Learn more

10-Day Weather Forecast

Advertisements
Track Severe Weather on mobile